createdAt,value
2023-03-29T00:02:07.372Z,55.56
2023-03-29T00:04:52.900Z,56.93
2023-03-29T00:07:37.993Z,59.94
2023-03-29T00:10:23.668Z,62.04
2023-03-29T00:13:09.191Z,63.24
2023-03-29T00:15:55.418Z,65.03
2023-03-29T00:18:40.848Z,67.14
2023-03-29T00:21:26.594Z,67.81
2023-03-29T00:24:11.897Z,69.21
2023-03-29T00:26:57.594Z,69.20
2023-03-29T00:29:42.966Z,69.20
2023-03-29T00:32:28.554Z,69.57
2023-03-29T00:35:14.369Z,69.78
2023-03-29T00:37:59.706Z,70.40
2023-03-29T00:40:46.924Z,72.44
2023-03-29T00:43:51.845Z,73.51
2023-03-29T00:46:38.613Z,73.45
2023-03-29T00:49:24.130Z,74.47
2023-03-29T00:52:09.542Z,73.82
2023-03-29T00:54:55.962Z,74.11
2023-03-29T00:57:42.671Z,74.55
2023-03-29T01:00:36.733Z,74.41
2023-03-29T01:03:27.236Z,75.21
2023-03-29T01:06:16.294Z,76.31
2023-03-29T01:09:04.267Z,75.34
2023-03-29T01:11:56.200Z,75.75
2023-03-29T01:14:48.125Z,75.73
2023-03-29T01:17:33.696Z,76.03
2023-03-29T01:20:38.171Z,76.48
2023-03-29T01:23:40.975Z,76.81
2023-03-29T01:26:52.371Z,76.27
2023-03-29T01:29:47.073Z,76.81
2023-03-29T01:32:48.384Z,76.06
2023-03-29T01:35:48.010Z,75.83
2023-03-29T01:38:50.565Z,76.79
2023-03-29T01:42:09.116Z,75.73
2023-03-29T01:45:13.146Z,75.91
2023-03-29T01:48:14.145Z,75.82
2023-03-29T01:51:18.457Z,75.54
2023-03-29T01:54:10.325Z,75.22
2023-03-29T01:56:57.357Z,73.71
2023-03-29T01:59:46.138Z,73.46
2023-03-29T02:02:32.561Z,72.74
2023-03-29T02:05:19.617Z,71.83
2023-03-29T02:08:07.649Z,71.42
2023-03-29T02:10:53.706Z,71.63
2023-03-29T02:13:39.190Z,71.29
2023-03-29T02:16:24.574Z,70.62
2023-03-29T02:19:10.254Z,70.46
2023-03-29T02:21:59.628Z,70.69
2023-03-29T02:24:48.156Z,72.39
2023-03-29T02:27:33.786Z,72.57
2023-03-29T02:30:20.754Z,71.82
2023-03-29T02:33:26.734Z,71.50
2023-03-29T02:36:31.789Z,71.09
2023-03-29T02:39:19.604Z,71.40
2023-03-29T02:42:06.150Z,71.19
2023-03-29T02:44:56.701Z,71.89
2023-03-29T02:47:47.127Z,71.27
2023-03-29T02:50:37.798Z,71.19
2023-03-29T02:53:28.044Z,71.97
2023-03-29T02:56:13.826Z,72.29
2023-03-29T02:58:59.236Z,72.46
2023-03-29T03:01:45.386Z,72.47
2023-03-29T03:04:32.237Z,71.72
2023-03-29T03:07:18.041Z,72.11
2023-03-29T03:10:03.679Z,71.96
2023-03-29T03:12:48.983Z,72.35
2023-03-29T03:15:34.246Z,72.11
2023-03-29T03:18:19.852Z,71.41
2023-03-29T03:21:05.530Z,71.92
2023-03-29T03:23:51.606Z,71.57
2023-03-29T03:26:36.707Z,70.87
2023-03-29T03:29:25.420Z,70.99
2023-03-29T03:32:29.810Z,71.15
2023-03-29T03:35:34.244Z,73.66
2023-03-29T03:38:19.528Z,74.08
2023-03-29T03:41:12.236Z,73.68
2023-03-29T03:43:57.908Z,72.60
2023-03-29T03:46:44.027Z,72.39
2023-03-29T03:49:29.317Z,72.16
2023-03-29T03:52:14.744Z,71.67
2023-03-29T03:54:59.962Z,72.04
2023-03-29T03:57:59.871Z,72.11
2023-03-29T04:00:48.893Z,71.04
2023-03-29T04:03:54.596Z,70.43
2023-03-29T04:06:43.519Z,70.28
2023-03-29T04:09:56.495Z,69.82
2023-03-29T04:13:01.364Z,69.67
2023-03-29T04:15:47.312Z,69.47
2023-03-29T04:18:33.050Z,69.42
2023-03-29T04:21:21.128Z,69.83
2023-03-29T04:24:07.321Z,69.41
2023-03-29T04:26:55.302Z,69.34
2023-03-29T04:29:42.734Z,69.80
2023-03-29T04:32:36.945Z,69.83
2023-03-29T04:35:26.700Z,69.60
2023-03-29T04:38:12.184Z,69.83
2023-03-29T04:41:00.937Z,69.15
2023-03-29T04:44:06.784Z,69.69
2023-03-29T04:46:53.147Z,69.98
2023-03-29T04:49:58.523Z,69.85
2023-03-29T04:52:55.285Z,69.87
2023-03-29T04:55:41.031Z,70.89
2023-03-29T04:58:32.215Z,70.20
2023-03-29T05:01:19.843Z,69.68
2023-03-29T05:04:14.581Z,69.32
2023-03-29T05:07:12.939Z,69.46
2023-03-29T05:09:58.071Z,69.78
2023-03-29T05:12:43.347Z,69.34
2023-03-29T05:15:28.523Z,69.26
2023-03-29T05:18:13.747Z,69.09
2023-03-29T05:21:00.300Z,68.67
2023-03-29T05:23:46.631Z,68.53
2023-03-29T05:26:34.884Z,68.72
2023-03-29T05:29:21.592Z,69.31
2023-03-29T05:32:12.520Z,69.30
2023-03-29T05:34:57.558Z,69.18
2023-03-29T05:37:42.869Z,69.51
2023-03-29T05:40:28.228Z,69.26
2023-03-29T05:43:33.259Z,68.99
2023-03-29T05:46:21.541Z,68.75
2023-03-29T05:49:10.662Z,68.50
2023-03-29T05:52:18.914Z,69.67
2023-03-29T05:55:05.322Z,69.77
2023-03-29T05:57:50.862Z,69.78
2023-03-29T06:00:41.374Z,69.11
2023-03-29T06:03:42.903Z,68.60
2023-03-29T06:06:28.200Z,68.76
2023-03-29T06:09:13.449Z,68.42
2023-03-29T06:12:08.265Z,68.43
2023-03-29T06:15:01.746Z,67.92
2023-03-29T06:17:53.995Z,68.69
2023-03-29T06:20:39.247Z,68.59
2023-03-29T06:23:31.080Z,68.58
2023-03-29T06:26:16.819Z,68.28
2023-03-29T06:29:02.411Z,68.05
2023-03-29T06:31:48.355Z,68.19
2023-03-29T06:34:53.946Z,67.60
2023-03-29T06:37:59.156Z,67.79
2023-03-29T06:40:49.346Z,67.77
2023-03-29T06:43:36.498Z,69.10
2023-03-29T06:46:26.470Z,69.17
2023-03-29T06:49:14.702Z,69.21
2023-03-29T06:52:11.598Z,68.96
2023-03-29T06:54:57.192Z,68.71
2023-03-29T06:57:44.581Z,69.31
2023-03-29T07:00:30.300Z,68.62
2023-03-29T07:03:46.078Z,69.52
2023-03-29T07:06:32.244Z,68.17
2023-03-29T07:09:19.492Z,67.00
2023-03-29T07:12:30.759Z,67.11
2023-03-29T07:15:19.546Z,66.29
2023-03-29T07:18:41.926Z,66.97
2023-03-29T07:21:30.725Z,66.44
2023-03-29T07:24:16.567Z,66.62
2023-03-29T07:27:04.544Z,66.54
2023-03-29T07:29:51.432Z,66.88
2023-03-29T07:32:38.493Z,66.56
2023-03-29T07:35:45.964Z,67.79
2023-03-29T07:38:31.530Z,65.70
2023-03-29T07:41:24.997Z,66.02
2023-03-29T07:44:18.894Z,66.16
2023-03-29T07:47:04.496Z,67.59
2023-03-29T07:49:50.719Z,67.45
2023-03-29T07:52:37.944Z,66.85
2023-03-29T07:55:27.540Z,66.38
2023-03-29T07:58:22.627Z,64.47
2023-03-29T08:01:11.060Z,64.58
2023-03-29T08:04:20.233Z,64.21
2023-03-29T08:07:27.385Z,65.31
2023-03-29T08:10:32.729Z,64.93
2023-03-29T08:13:46.808Z,64.13
2023-03-29T08:16:41.787Z,62.69
2023-03-29T08:19:32.201Z,63.53
2023-03-29T08:22:28.007Z,63.60
2023-03-29T08:25:32.257Z,63.12
2023-03-29T08:28:17.662Z,63.67
2023-03-29T08:31:08.768Z,64.31
2023-03-29T08:33:57.237Z,63.01
2023-03-29T08:37:05.915Z,64.17
2023-03-29T08:39:59.436Z,64.13
2023-03-29T08:43:16.046Z,63.21
2023-03-29T08:46:35.536Z,62.17
2023-03-29T08:49:39.867Z,62.50
2023-03-29T08:52:33.278Z,62.67
2023-03-29T08:55:41.130Z,61.48
2023-03-29T08:58:51.776Z,64.03
2023-03-29T09:01:38.253Z,61.49
2023-03-29T09:04:33.361Z,61.59
2023-03-29T09:07:28.471Z,62.65
2023-03-29T09:10:21.053Z,62.32
2023-03-29T09:13:41.991Z,63.46
2023-03-29T09:16:54.560Z,62.97
2023-03-29T09:19:46.315Z,59.58
2023-03-29T09:22:59.296Z,60.67
2023-03-29T09:26:11.688Z,61.13
2023-03-29T09:29:25.858Z,60.37
2023-03-29T09:32:20.403Z,61.72
2023-03-29T09:35:37.128Z,60.01
2023-03-29T09:38:23.037Z,60.11
2023-03-29T09:41:23.424Z,61.20
2023-03-29T09:44:27.798Z,62.05
2023-03-29T09:47:30.361Z,59.58
2023-03-29T09:50:30.865Z,60.56
2023-03-29T09:53:21.863Z,59.77
2023-03-29T09:56:20.291Z,58.16
2023-03-29T09:59:12.681Z,57.35
2023-03-29T10:02:09.806Z,60.67
2023-03-29T10:04:55.095Z,60.61
2023-03-29T10:07:46.853Z,61.91
2023-03-29T10:10:35.311Z,61.08
2023-03-29T10:13:27.932Z,61.18
2023-03-29T10:16:30.345Z,60.26
2023-03-29T10:19:20.418Z,60.73
2023-03-29T10:22:14.458Z,60.70
2023-03-29T10:25:00.084Z,60.81
2023-03-29T10:27:47.635Z,61.56
2023-03-29T10:30:36.686Z,61.31
2023-03-29T10:33:24.681Z,60.59
2023-03-29T10:36:13.711Z,60.96
2023-03-29T10:39:05.068Z,61.58
2023-03-29T10:41:51.395Z,59.91
2023-03-29T10:44:37.374Z,60.74
2023-03-29T10:47:22.886Z,61.00
2023-03-29T10:50:16.017Z,60.14
2023-03-29T10:53:04.103Z,60.41
2023-03-29T10:56:30.786Z,60.52
2023-03-29T10:59:15.917Z,60.49
2023-03-29T11:02:14.379Z,61.54
2023-03-29T11:05:19.686Z,61.09
2023-03-29T11:08:32.257Z,59.96
2023-03-29T11:11:23.467Z,60.48
2023-03-29T11:14:15.717Z,60.57
2023-03-29T11:17:29.368Z,59.77
2023-03-29T11:20:36.178Z,59.26
2023-03-29T11:23:39.584Z,59.64
2023-03-29T11:26:59.060Z,60.98
2023-03-29T11:29:56.047Z,61.43
2023-03-29T11:33:03.391Z,61.52
2023-03-29T11:36:20.430Z,60.81
2023-03-29T11:39:23.777Z,61.11
2023-03-29T11:42:32.096Z,61.04
2023-03-29T11:45:27.082Z,60.77
2023-03-29T11:48:20.264Z,60.82
2023-03-29T11:51:24.818Z,61.37
2023-03-29T11:54:13.035Z,61.34
2023-03-29T11:57:14.362Z,62.31
2023-03-29T12:00:05.113Z,61.43
2023-03-29T12:03:09.352Z,61.50
2023-03-29T12:06:00.266Z,61.81
2023-03-29T12:08:52.862Z,61.23
2023-03-29T12:11:53.360Z,61.15
2023-03-29T12:14:58.022Z,60.17
2023-03-29T12:18:20.979Z,59.54
2023-03-29T12:21:12.257Z,59.52
2023-03-29T12:23:58.233Z,59.01
2023-03-29T12:27:02.029Z,58.40
2023-03-29T12:30:02.335Z,57.90
2023-03-29T12:33:06.680Z,58.21
2023-03-29T12:36:35.108Z,58.59
2023-03-29T12:39:43.831Z,57.09
2023-03-29T12:43:15.233Z,57.34
2023-03-29T12:46:27.564Z,58.29
2023-03-29T12:49:29.079Z,57.94
2023-03-29T12:52:42.418Z,56.10
2023-03-29T12:55:44.640Z,57.57
2023-03-29T12:58:39.427Z,57.36
2023-03-29T13:01:34.960Z,57.39
2023-03-29T13:04:22.273Z,57.84
2023-03-29T13:07:31.199Z,58.04
2023-03-29T13:10:36.070Z,58.16
2023-03-29T13:13:28.873Z,57.52
2023-03-29T13:16:16.137Z,58.70
2023-03-29T13:19:37.392Z,57.92
2023-03-29T13:22:22.517Z,58.38
2023-03-29T13:25:17.146Z,58.37
2023-03-29T13:28:23.853Z,59.42
2023-03-29T13:31:30.360Z,59.20
2023-03-29T13:34:37.296Z,58.40
2023-03-29T13:37:28.660Z,59.32
2023-03-29T13:40:31.419Z,58.48
2023-03-29T13:43:19.672Z,57.95
2023-03-29T13:46:26.688Z,58.55
2023-03-29T13:49:21.170Z,58.22
2023-03-29T13:52:15.020Z,59.13
2023-03-29T13:55:04.170Z,59.61
2023-03-29T13:57:55.218Z,59.19
2023-03-29T14:00:59.247Z,58.20
2023-03-29T14:03:47.918Z,59.33
2023-03-29T14:06:36.980Z,58.72
2023-03-29T14:09:27.682Z,58.71
2023-03-29T14:12:14.733Z,59.01
2023-03-29T14:15:03.494Z,58.86
2023-03-29T14:17:49.181Z,58.11
2023-03-29T14:20:34.893Z,57.98
2023-03-29T14:23:23.703Z,57.86
2023-03-29T14:26:20.849Z,57.95
2023-03-29T14:29:10.127Z,57.97
2023-03-29T14:31:55.979Z,58.29
2023-03-29T14:34:42.195Z,58.75
2023-03-29T14:37:28.653Z,58.42
2023-03-29T14:40:20.787Z,57.23
2023-03-29T14:43:07.757Z,58.44
2023-03-29T14:45:53.382Z,58.70
2023-03-29T14:48:39.023Z,58.09
2023-03-29T14:51:24.881Z,58.43
2023-03-29T14:54:19.515Z,58.39
2023-03-29T14:57:05.428Z,57.93
2023-03-29T14:59:58.661Z,57.01
2023-03-29T15:02:54.892Z,56.52
2023-03-29T15:05:42.441Z,57.60
2023-03-29T15:08:37.371Z,56.23
2023-03-29T15:11:25.714Z,56.20
2023-03-29T15:14:16.598Z,57.66
2023-03-29T15:17:05.047Z,56.78
2023-03-29T15:19:59.041Z,57.16
2023-03-29T15:22:59.337Z,55.93
2023-03-29T15:25:52.674Z,54.93
2023-03-29T15:28:47.014Z,55.36
2023-03-29T15:31:36.791Z,56.17
2023-03-29T15:34:33.645Z,55.76
2023-03-29T15:37:19.112Z,57.36
2023-03-29T15:40:06.371Z,56.04
2023-03-29T15:42:53.991Z,56.10
2023-03-29T15:45:39.599Z,57.04
2023-03-29T15:48:27.688Z,56.17
2023-03-29T15:51:15.934Z,57.03
2023-03-29T15:54:01.968Z,57.01
2023-03-29T15:56:56.826Z,57.01
2023-03-29T15:59:43.356Z,56.13
2023-03-29T16:02:30.635Z,55.76
2023-03-29T16:05:16.211Z,55.50
2023-03-29T16:08:01.267Z,55.92
2023-03-29T16:10:46.793Z,57.07
2023-03-29T16:13:32.254Z,57.59
2023-03-29T16:16:18.799Z,57.75
2023-03-29T16:19:03.997Z,58.53
2023-03-29T16:21:49.615Z,58.21
2023-03-29T16:24:35.799Z,57.86
2023-03-29T16:27:21.379Z,58.41
2023-03-29T16:30:07.622Z,58.01
2023-03-29T16:32:52.853Z,57.67
2023-03-29T16:35:40.048Z,57.29
2023-03-29T16:38:26.768Z,57.45
2023-03-29T16:41:16.484Z,58.50
2023-03-29T16:44:01.878Z,58.01
2023-03-29T16:46:48.096Z,58.42
2023-03-29T16:49:33.715Z,58.05
2023-03-29T16:52:19.667Z,58.98
2023-03-29T16:55:06.441Z,59.88
2023-03-29T16:57:52.398Z,59.49
2023-03-29T17:00:37.704Z,60.25
2023-03-29T17:03:24.088Z,60.20
2023-03-29T17:06:11.110Z,59.21
2023-03-29T17:08:56.450Z,58.73
2023-03-29T17:11:42.418Z,57.89
2023-03-29T17:14:27.592Z,58.50
2023-03-29T17:17:14.038Z,59.28
2023-03-29T17:20:00.374Z,59.18
2023-03-29T17:22:45.590Z,58.70
2023-03-29T17:25:31.303Z,58.16
2023-03-29T17:28:16.830Z,59.18
2023-03-29T17:31:06.400Z,59.85
2023-03-29T17:33:51.675Z,60.02
2023-03-29T17:36:37.226Z,60.01
2023-03-29T17:39:22.528Z,59.55
2023-03-29T17:42:08.093Z,59.11
2023-03-29T17:44:53.461Z,59.47
2023-03-29T17:47:39.094Z,59.05
2023-03-29T17:50:24.193Z,58.82
2023-03-29T17:53:11.758Z,59.62
2023-03-29T17:55:56.963Z,60.23
2023-03-29T17:58:42.246Z,60.00
2023-03-29T18:01:27.829Z,60.71
2023-03-29T18:04:13.502Z,61.72
2023-03-29T18:06:59.153Z,61.43
2023-03-29T18:09:46.114Z,61.43
2023-03-29T18:12:31.733Z,61.19
2023-03-29T18:15:17.535Z,60.56
2023-03-29T18:18:03.129Z,61.33
2023-03-29T18:20:48.467Z,61.47
2023-03-29T18:23:34.021Z,61.52
2023-03-29T18:26:19.511Z,61.31
2023-03-29T18:29:05.761Z,60.80
2023-03-29T18:31:52.448Z,60.59
2023-03-29T18:34:37.774Z,62.43
2023-03-29T18:37:23.040Z,62.76
2023-03-29T18:40:08.904Z,63.17
2023-03-29T18:42:54.628Z,62.82
2023-03-29T18:45:41.284Z,63.06
2023-03-29T18:48:28.039Z,63.33
2023-03-29T18:51:13.458Z,63.64
2023-03-29T18:53:59.073Z,63.78
2023-03-29T18:56:47.189Z,63.75
2023-03-29T18:59:33.821Z,63.32
2023-03-29T19:02:19.111Z,62.62
2023-03-29T19:05:05.278Z,62.52
2023-03-29T19:07:50.663Z,62.81
2023-03-29T19:10:38.167Z,62.55
2023-03-29T19:13:23.491Z,62.76
2023-03-29T19:16:09.208Z,63.32
2023-03-29T19:18:54.898Z,63.27
2023-03-29T19:21:40.363Z,63.12
2023-03-29T19:24:25.843Z,62.30
2023-03-29T19:27:12.596Z,62.01
2023-03-29T19:29:57.804Z,62.51
2023-03-29T19:32:43.075Z,62.12
2023-03-29T19:35:28.276Z,61.34
2023-03-29T19:38:13.532Z,61.11
2023-03-29T19:40:58.905Z,61.90
2023-03-29T19:43:44.028Z,63.23
2023-03-29T19:46:29.247Z,63.38
2023-03-29T19:49:15.239Z,62.48
2023-03-29T19:52:00.895Z,63.09
2023-03-29T19:54:46.090Z,64.69
2023-03-29T19:57:31.497Z,64.66
2023-03-29T20:00:17.028Z,64.28
2023-03-29T20:03:02.516Z,64.64
2023-03-29T20:05:48.086Z,65.13
2023-03-29T20:08:33.136Z,64.86
2023-03-29T20:11:18.807Z,64.96
2023-03-29T20:14:04.648Z,64.32
2023-03-29T20:16:50.153Z,64.49
2023-03-29T20:19:35.745Z,65.26
2023-03-29T20:22:21.870Z,65.36
2023-03-29T20:25:08.181Z,64.87
2023-03-29T20:27:53.767Z,64.73
2023-03-29T20:30:40.333Z,65.27
2023-03-29T20:33:25.818Z,65.85
2023-03-29T20:36:12.235Z,65.51
2023-03-29T20:38:57.690Z,66.01
2023-03-29T20:41:43.418Z,66.50
2023-03-29T20:44:29.103Z,65.84
2023-03-29T20:47:14.542Z,65.83
2023-03-29T20:50:00.165Z,66.25
2023-03-29T20:52:45.406Z,66.50
2023-03-29T20:55:30.933Z,66.32
2023-03-29T20:58:16.489Z,66.40
2023-03-29T21:01:02.184Z,66.83
2023-03-29T21:03:47.663Z,66.64
2023-03-29T21:06:33.449Z,66.95
2023-03-29T21:09:21.098Z,67.21
2023-03-29T21:12:06.879Z,67.89
2023-03-29T21:14:52.350Z,67.05
2023-03-29T21:17:37.649Z,67.32
2023-03-29T21:20:22.769Z,67.65
2023-03-29T21:23:08.392Z,68.15
2023-03-29T21:25:53.746Z,68.16
2023-03-29T21:28:39.144Z,68.94
2023-03-29T21:31:24.238Z,68.29
2023-03-29T21:34:09.620Z,67.01
2023-03-29T21:36:54.749Z,66.58
2023-03-29T21:39:39.996Z,66.27
2023-03-29T21:42:25.100Z,66.55
2023-03-29T21:45:10.811Z,66.90
2023-03-29T21:47:56.269Z,66.82
2023-03-29T21:50:41.634Z,66.69
2023-03-29T21:53:27.034Z,66.10
2023-03-29T21:56:12.305Z,65.78
2023-03-29T21:58:57.802Z,66.97
2023-03-29T22:01:43.254Z,66.37
2023-03-29T22:04:36.500Z,66.58
2023-03-29T22:07:22.951Z,65.85
2023-03-29T22:10:10.511Z,66.29
2023-03-29T22:12:57.106Z,66.00
2023-03-29T22:15:42.444Z,64.91
2023-03-29T22:18:29.504Z,64.80
2023-03-29T22:21:22.879Z,64.98
2023-03-29T22:24:08.241Z,64.72
2023-03-29T22:26:53.462Z,64.33
2023-03-29T22:29:39.038Z,64.39
2023-03-29T22:32:24.886Z,64.18
2023-03-29T22:35:10.437Z,63.55
2023-03-29T22:37:55.622Z,63.52
2023-03-29T22:40:40.937Z,63.14
2023-03-29T22:43:26.382Z,63.04
2023-03-29T22:46:13.737Z,63.13
2023-03-29T22:48:59.283Z,62.78
2023-03-29T22:51:45.005Z,62.49
2023-03-29T22:54:30.486Z,61.95
2023-03-29T22:57:15.788Z,61.54
2023-03-29T23:00:01.266Z,61.63
2023-03-29T23:02:46.713Z,61.91
2023-03-29T23:05:32.351Z,61.95
2023-03-29T23:08:17.963Z,61.41
2023-03-29T23:11:04.417Z,61.11
2023-03-29T23:13:50.677Z,60.70
2023-03-29T23:16:35.838Z,61.04
2023-03-29T23:19:21.073Z,61.30
2023-03-29T23:22:06.175Z,61.96
2023-03-29T23:24:51.598Z,61.97
2023-03-29T23:27:36.800Z,61.58
2023-03-29T23:30:22.486Z,61.05
2023-03-29T23:33:08.361Z,62.36
2023-03-29T23:35:53.929Z,63.04
2023-03-29T23:38:40.004Z,62.78
2023-03-29T23:41:25.364Z,62.70
2023-03-29T23:44:10.788Z,63.49
2023-03-29T23:46:56.201Z,64.61
2023-03-29T23:49:41.203Z,65.23
2023-03-29T23:52:27.046Z,65.42
2023-03-29T23:55:15.730Z,65.11
2023-03-29T23:58:01.147Z,66.10
